Selah, Washington
Current Conditions -  °F | °C
As of 1:56 PM on Monday 24 Nov 2014 (Local Time) from K1YT Reporting Station
Clear Clear  
Wind Chill: 41°   Ceiling: Unl
Heat Index: 41°   Visibility: 10mi
Dew Point: 31°   Wind: 2mph
Humidity: 66%   Direction: 290°WNW
Pressure: 30.26"   Gusts: NA
Location:  46.65°N, 120.53°W
Report Text: K1YT 242156Z AUTO 29002KT 10SM CLR 05/M01 A3026 RMK AO2 SLPNO T00521006
Loading
Personal Weather Stations






























Interactive Weather Map New forecast layout! Learn more

10-Day Weather Forecast

Advertisements
Track Severe Weather on mobile